Time;durP1;ratioP1;P1;durP2;ratioP2;P2;SDS_P1;SDS_P2;PMS_P1;PMS_P2;Temp;Humidity;BMP_temperature;BMP_pressure;BME280_temperature;BME280_humidity;BME280_pressure;Samples;Min_cycle;Max_cycle;Signal;HPM_P1;HPM_P2
2021/06/08 00:01:36;;;;;;;11.50;10.50;;;16.30;99.90;;;;;;5049146;28;20266;-68
2021/06/08 00:04:04;;;;;;;11.80;10.70;;;16.30;99.90;;;;;;5049620;28;20232;-69
2021/06/08 00:06:33;;;;;;;11.47;10.37;;;16.30;99.90;;;;;;5049774;28;20238;-68
2021/06/08 00:09:01;;;;;;;10.80;9.73;;;16.40;99.90;;;;;;5049494;28;20286;-68
2021/06/08 00:11:29;;;;;;;11.53;10.40;;;16.40;99.90;;;;;;5048676;28;20228;-67
2021/06/08 00:13:57;;;;;;;11.83;10.63;;;16.30;99.90;;;;;;5049327;28;20300;-68
2021/06/08 00:16:25;;;;;;;11.60;10.50;;;16.30;99.90;;;;;;5049782;28;20252;-68
2021/06/08 00:18:53;;;;;;;11.87;10.60;;;16.40;99.90;;;;;;5048969;28;20236;-68
2021/06/08 00:21:21;;;;;;;12.93;11.00;;;16.30;99.90;;;;;;5049296;28;20324;-68
2021/06/08 00:23:50;;;;;;;12.23;11.23;;;16.30;99.90;;;;;;5048515;28;20243;-68
2021/06/08 00:26:17;;;;;;;12.10;11.00;;;16.20;99.90;;;;;;5049363;28;20225;-68
2021/06/08 00:28:45;;;;;;;11.60;10.40;;;16.20;99.90;;;;;;5048698;28;20718;-68
2021/06/08 00:31:13;;;;;;;11.40;10.40;;;16.20;99.90;;;;;;5048960;28;20263;-68
2021/06/08 00:33:40;;;;;;;11.40;10.40;;;16.30;99.90;;;;;;5048992;28;20239;-68
2021/06/08 00:36:10;;;;;;;12.03;10.83;;;16.30;99.90;;;;;;5049406;28;20241;-68
2021/06/08 00:38:38;;;;;;;13.80;10.87;;;16.30;99.90;;;;;;5048642;28;20250;-68
2021/06/08 00:41:07;;;;;;;11.83;10.80;;;16.20;99.90;;;;;;5049032;28;20232;-68
2021/06/08 00:43:36;;;;;;;12.90;11.70;;;16.20;99.90;;;;;;5048464;28;20312;-68
2021/06/08 00:46:03;;;;;;;12.40;11.23;;;16.20;99.90;;;;;;5049224;28;20228;-68
2021/06/08 00:48:31;;;;;;;13.07;11.80;;;16.20;99.90;;;;;;5063898;28;20256;-68
2021/06/08 00:50:59;;;;;;;12.90;11.60;;;16.10;99.90;;;;;;5049023;28;20235;-68
2021/06/08 00:53:26;;;;;;;14.97;11.57;;;16.10;99.90;;;;;;5048599;28;20598;-68
2021/06/08 00:55:54;;;;;;;13.10;11.90;;;16.10;99.90;;;;;;5048516;28;20266;-68
2021/06/08 00:58:23;;;;;;;12.47;11.47;;;16.10;99.90;;;;;;5048191;28;20635;-68
2021/06/08 01:00:51;;;;;;;13.57;11.50;;;16.00;99.90;;;;;;5048585;28;20240;-68
2021/06/08 01:03:19;;;;;;;12.67;11.57;;;16.00;99.90;;;;;;5048312;28;20235;-68
2021/06/08 01:05:46;;;;;;;12.47;11.27;;;16.10;99.90;;;;;;5048635;28;20306;-68
2021/06/08 01:08:14;;;;;;;12.33;11.23;;;16.00;99.90;;;;;;5048161;28;20242;-68
2021/06/08 01:10:42;;;;;;;11.80;10.70;;;16.00;99.90;;;;;;5047778;28;20239;-68
2021/06/08 01:13:12;;;;;;;12.57;11.47;;;16.00;99.90;;;;;;5047478;28;20322;-67
2021/06/08 01:15:41;;;;;;;12.90;11.47;;;16.00;99.90;;;;;;5048532;28;20591;-68
2021/06/08 01:18:09;;;;;;;12.87;11.57;;;16.00;99.90;;;;;;5047976;28;20228;-68
2021/06/08 01:20:37;;;;;;;12.70;11.50;;;16.00;99.90;;;;;;5047976;28;20243;-67
2021/06/08 01:23:06;;;;;;;12.70;11.50;;;15.90;99.90;;;;;;5047701;28;20239;-68
2021/06/08 01:25:33;;;;;;;13.57;12.27;;;15.90;99.90;;;;;;5048017;28;20243;-69
2021/06/08 01:28:02;;;;;;;12.50;11.30;;;15.90;99.90;;;;;;5047860;28;20688;-68
2021/06/08 01:30:30;;;;;;;12.17;11.17;;;15.80;99.90;;;;;;5047897;28;20699;-68
2021/06/08 01:32:59;;;;;;;12.63;11.63;;;15.90;99.90;;;;;;5047890;28;20232;-68
2021/06/08 01:35:28;;;;;;;11.90;10.80;;;16.00;99.90;;;;;;5048254;28;20245;-68
2021/06/08 01:37:56;;;;;;;12.40;11.30;;;15.90;99.90;;;;;;5047527;28;20631;-67
2021/06/08 01:40:25;;;;;;;12.80;11.60;;;15.90;99.90;;;;;;5047813;28;20259;-68
2021/06/08 01:42:53;;;;;;;11.80;10.77;;;15.90;99.90;;;;;;5047671;28;20691;-68
2021/06/08 01:45:20;;;;;;;12.30;11.00;;;16.00;99.90;;;;;;5047575;28;20228;-67
2021/06/08 01:47:48;;;;;;;11.67;10.57;;;16.00;99.90;;;;;;5047495;28;20243;-68
2021/06/08 01:50:17;;;;;;;12.73;11.40;;;16.10;99.90;;;;;;5047489;28;20236;-68
2021/06/08 01:52:54;;;;;;;12.17;11.13;;;16.10;99.90;;;;;;5046905;28;20236;-68
2021/06/08 01:55:29;;;;;;;11.87;10.60;;;16.10;99.90;;;;;;5047712;28;20228;-68
2021/06/08 01:58:07;;;;;;;12.37;11.27;;;16.10;99.90;;;;;;5047319;28;20242;-68
2021/06/08 02:00:40;;;;;;;13.13;11.67;;;16.00;99.90;;;;;;5047271;28;20657;-68
2021/06/08 02:03:13;;;;;;;12.10;10.90;;;16.00;99.90;;;;;;5047355;28;20236;-68
2021/06/08 02:05:50;;;;;;;12.50;11.30;;;15.90;99.90;;;;;;5047837;28;20355;-67
2021/06/08 02:08:30;;;;;;;12.40;11.20;;;15.90;99.90;;;;;;5047440;28;20231;-68
2021/06/08 02:11:01;;;;;;;12.47;10.90;;;15.90;99.90;;;;;;5047147;28;20231;-69
2021/06/08 02:13:35;;;;;;;11.60;10.60;;;15.80;99.90;;;;;;5046889;28;20274;-68
2021/06/08 02:16:20;;;;;;;12.93;11.70;;;15.80;99.90;;;;;;5047942;28;20305;-69
2021/06/08 02:18:49;;;;;;;12.43;11.23;;;15.90;99.90;;;;;;5047015;28;20244;-68
2021/06/08 02:21:21;;;;;;;12.07;10.87;;;15.80;99.90;;;;;;5046942;28;20717;-68
2021/06/08 02:23:52;;;;;;;11.93;10.93;;;15.70;99.90;;;;;;5047115;28;20650;-68
2021/06/08 02:26:24;;;;;;;12.33;11.20;;;15.60;99.90;;;;;;5047432;28;20677;-69
2021/06/08 02:28:54;;;;;;;12.77;11.37;;;15.60;99.90;;;;;;5046882;28;20281;-67
2021/06/08 02:31:23;;;;;;;13.10;11.80;;;15.70;99.90;;;;;;5046857;28;20235;-68
2021/06/08 02:33:52;;;;;;;12.80;11.70;;;15.60;99.90;;;;;;5047055;28;20228;-68
2021/06/08 02:36:21;;;;;;;13.17;11.87;;;15.60;99.90;;;;;;5047276;28;20610;-68
2021/06/08 02:38:50;;;;;;;13.43;12.20;;;15.70;99.90;;;;;;5046740;28;20243;-68
2021/06/08 02:41:18;;;;;;;13.03;11.87;;;15.60;99.90;;;;;;5046831;28;20232;-68
2021/06/08 02:43:48;;;;;;;14.53;13.10;;;15.60;99.90;;;;;;5047200;28;20719;-68
2021/06/08 02:46:16;;;;;;;15.13;12.97;;;15.50;99.90;;;;;;5047380;28;20699;-68
2021/06/08 02:48:46;;;;;;;13.73;12.57;;;15.50;99.90;;;;;;5045887;28;20244;-68
2021/06/08 02:51:14;;;;;;;13.73;12.43;;;15.50;99.90;;;;;;5046969;28;20252;-68
2021/06/08 02:53:43;;;;;;;14.33;12.87;;;15.50;99.90;;;;;;5046542;28;20649;-67
2021/06/08 02:56:10;;;;;;;14.37;12.97;;;15.50;99.90;;;;;;5047347;28;20301;-68
2021/06/08 02:58:38;;;;;;;13.73;12.53;;;15.50;99.90;;;;;;5046536;28;20242;-68
2021/06/08 03:01:11;;;;;;;14.27;12.83;;;15.50;99.90;;;;;;5046239;28;20691;-68
2021/06/08 03:03:41;;;;;;;14.93;13.50;;;15.50;99.90;;;;;;5046789;28;20572;-68
2021/06/08 03:06:14;;;;;;;14.77;13.27;;;15.50;99.90;;;;;;5047408;28;20228;-68
2021/06/08 03:08:48;;;;;;;14.03;12.60;;;15.50;99.90;;;;;;5046202;28;20255;-67
2021/06/08 03:11:20;;;;;;;13.30;12.17;;;15.50;99.90;;;;;;5038215;28;20227;-68
2021/06/08 03:14:05;;;;;;;13.90;12.50;;;15.60;99.90;;;;;;5003868;28;20233;-68
2021/06/08 03:16:37;;;;;;;12.77;11.47;;;15.60;99.90;;;;;;5027327;28;20243;-68
2021/06/08 03:19:07;;;;;;;13.73;12.43;;;15.80;99.90;;;;;;5043886;28;20247;-68
2021/06/08 03:21:38;;;;;;;14.87;13.37;;;15.80;99.90;;;;;;5045028;28;20710;-68
2021/06/08 03:24:09;;;;;;;13.37;12.20;;;15.80;99.90;;;;;;5045366;28;20247;-69
2021/06/08 03:26:38;;;;;;;14.73;13.20;;;15.80;99.90;;;;;;5045909;28;20853;-68
2021/06/08 03:29:09;;;;;;;15.30;13.83;;;15.80;99.90;;;;;;5045176;28;20703;-68
2021/06/08 03:31:42;;;;;;;16.03;14.60;;;15.70;99.90;;;;;;5045457;28;20576;-68
2021/06/08 03:34:15;;;;;;;16.60;15.00;;;15.60;99.90;;;;;;5045321;28;20718;-68
2021/06/08 03:36:45;;;;;;;17.00;15.17;;;15.60;99.90;;;;;;5045842;28;20243;-68
2021/06/08 03:39:14;;;;;;;15.90;14.30;;;15.50;99.90;;;;;;5048854;28;20281;-68
2021/06/08 03:41:43;;;;;;;17.67;15.17;;;15.50;99.90;;;;;;5048678;28;20243;-68
2021/06/08 03:44:13;;;;;;;17.37;15.23;;;15.50;99.90;;;;;;5048820;28;20568;-69
2021/06/08 03:46:44;;;;;;;16.07;14.53;;;15.50;99.90;;;;;;5048831;28;20236;-68
2021/06/08 03:49:12;;;;;;;17.10;15.30;;;15.50;99.90;;;;;;5047438;28;20274;-68
2021/06/08 03:51:42;;;;;;;16.20;14.33;;;15.50;99.90;;;;;;5047803;28;20248;-68
2021/06/08 03:54:11;;;;;;;16.13;14.43;;;15.60;99.90;;;;;;5048419;28;20239;-68
2021/06/08 03:56:41;;;;;;;15.60;14.00;;;15.60;99.90;;;;;;5048266;28;20283;-68
2021/06/08 03:59:10;;;;;;;16.47;14.53;;;15.60;99.90;;;;;;5048289;28;20311;-68
2021/06/08 04:01:38;;;;;;;15.67;14.27;;;15.60;99.90;;;;;;5047633;28;20634;-68
2021/06/08 04:04:08;;;;;;;15.90;14.30;;;15.70;99.90;;;;;;5048333;28;20248;-68
2021/06/08 04:06:36;;;;;;;15.43;14.00;;;15.70;99.90;;;;;;5048291;28;20800;-68
2021/06/08 04:09:05;;;;;;;17.37;15.57;;;15.70;99.90;;;;;;5049438;28;20306;-68
2021/06/08 04:11:33;;;;;;;15.87;14.37;;;15.70;99.90;;;;;;5049372;28;20297;-68
2021/06/08 04:14:02;;;;;;;16.13;14.47;;;15.60;99.90;;;;;;5049430;28;20613;-68
2021/06/08 04:16:30;;;;;;;16.10;14.50;;;15.60;99.90;;;;;;5049816;28;20321;-68
2021/06/08 04:18:58;;;;;;;15.73;14.03;;;15.60;99.90;;;;;;5049245;28;20301;-69
2021/06/08 04:21:28;;;;;;;17.63;15.07;;;15.60;99.90;;;;;;5049153;28;20239;-68
2021/06/08 04:23:56;;;;;;;17.83;14.90;;;15.70;99.90;;;;;;5049167;28;20238;-68
2021/06/08 04:26:24;;;;;;;16.73;14.87;;;15.70;99.90;;;;;;5049377;28;20262;-68
2021/06/08 04:28:53;;;;;;;17.60;15.13;;;15.70;99.90;;;;;;5048884;28;20327;-68
2021/06/08 04:31:21;;;;;;;18.23;14.37;;;15.80;99.90;;;;;;5049168;28;20240;-68
2021/06/08 04:33:50;;;;;;;15.50;14.00;;;15.80;99.90;;;;;;5048539;28;20323;-68
2021/06/08 04:36:18;;;;;;;18.07;14.87;;;15.90;99.90;;;;;;5049408;28;20263;-68
2021/06/08 04:38:48;;;;;;;15.90;14.43;;;16.00;99.90;;;;;;5048586;28;20526;-68
2021/06/08 04:41:15;;;;;;;16.57;14.97;;;16.00;99.90;;;;;;5048950;28;20652;-68
2021/06/08 04:43:43;;;;;;;15.40;13.80;;;16.00;99.90;;;;;;5048731;28;20259;-68
2021/06/08 04:46:12;;;;;;;15.33;13.83;;;16.00;99.90;;;;;;5048565;28;20598;-68
2021/06/08 04:48:41;;;;;;;15.03;13.23;;;16.00;99.90;;;;;;5047906;28;20244;-68
2021/06/08 04:51:09;;;;;;;15.67;14.07;;;16.10;99.90;;;;;;5048646;28;20239;-68
2021/06/08 04:53:37;;;;;;;14.80;13.20;;;16.10;99.90;;;;;;5047774;28;20231;-69
2021/06/08 04:56:07;;;;;;;15.77;14.20;;;16.10;99.90;;;;;;5048924;28;20564;-68
2021/06/08 04:58:35;;;;;;;14.97;13.37;;;16.20;99.90;;;;;;5048125;28;20240;-69
2021/06/08 05:01:12;;;;;;;14.47;12.97;;;16.20;99.90;;;;;;5047285;28;20332;-68
2021/06/08 05:03:42;;;;;;;14.83;13.30;;;16.20;99.90;;;;;;5046144;28;20263;-68
2021/06/08 05:06:13;;;;;;;15.47;13.53;;;16.10;99.90;;;;;;5048497;28;20239;-68
2021/06/08 05:08:45;;;;;;;14.13;12.73;;;16.10;99.90;;;;;;5047985;28;20380;-69
2021/06/08 05:11:16;;;;;;;15.37;13.73;;;16.20;99.90;;;;;;5048260;28;20319;-68
2021/06/08 05:13:47;;;;;;;14.30;12.80;;;16.20;99.90;;;;;;5047994;28;20735;-69
2021/06/08 05:16:16;;;;;;;15.07;13.60;;;16.20;99.90;;;;;;5048605;28;20583;-68
2021/06/08 05:18:47;;;;;;;14.33;12.83;;;16.10;99.90;;;;;;5047130;28;20243;-68
2021/06/08 05:21:18;;;;;;;14.27;12.87;;;16.10;99.90;;;;;;5047762;28;20244;-68
2021/06/08 05:23:45;;;;;;;13.87;12.33;;;16.10;99.90;;;;;;5046790;28;20646;-68
2021/06/08 05:26:15;;;;;;;14.40;12.97;;;16.20;99.90;;;;;;5047533;28;20228;-68
2021/06/08 05:28:43;;;;;;;14.03;12.50;;;16.10;99.90;;;;;;5046186;28;20781;-68
2021/06/08 05:31:11;;;;;;;14.63;13.20;;;16.10;99.90;;;;;;5042749;28;20241;-68
2021/06/08 05:33:40;;;;;;;14.67;13.27;;;16.20;99.90;;;;;;5045173;28;20236;-69
2021/06/08 05:36:08;;;;;;;14.07;12.77;;;16.10;99.90;;;;;;5043822;28;20506;-69
2021/06/08 05:38:37;;;;;;;13.97;12.67;;;16.20;99.90;;;;;;5041072;28;20316;-69
2021/06/08 05:41:06;;;;;;;15.30;13.17;;;16.20;99.90;;;;;;5043609;28;20242;-69
2021/06/08 05:43:35;;;;;;;14.73;13.27;;;16.20;99.90;;;;;;5045432;28;20648;-68
2021/06/08 05:46:04;;;;;;;15.00;13.53;;;16.20;99.90;;;;;;5044586;28;20698;-69
2021/06/08 05:48:32;;;;;;;14.07;12.53;;;16.30;99.90;;;;;;5046720;28;20691;-68
2021/06/08 05:51:01;;;;;;;13.73;12.47;;;16.30;99.90;;;;;;5047639;28;20310;-69
2021/06/08 05:53:31;;;;;;;14.17;12.17;;;16.40;99.90;;;;;;5038758;28;20250;-69
2021/06/08 05:56:01;;;;;;;13.60;12.20;;;16.50;99.90;;;;;;5046808;28;20739;-68
2021/06/08 05:58:30;;;;;;;15.03;13.10;;;16.50;99.90;;;;;;5037848;28;20233;-68
2021/06/08 06:01:00;;;;;;;13.07;11.77;;;16.50;99.90;;;;;;5046760;28;20607;-68
2021/06/08 06:03:29;;;;;;;13.17;11.80;;;16.60;99.90;;;;;;5046644;28;20233;-69
2021/06/08 06:05:57;;;;;;;12.73;11.53;;;16.70;99.90;;;;;;5047579;28;20276;-69
2021/06/08 06:08:26;;;;;;;14.00;12.50;;;16.70;99.90;;;;;;5044817;28;20709;-68
2021/06/08 06:10:54;;;;;;;13.60;12.27;;;16.70;99.90;;;;;;5047024;28;20244;-68
2021/06/08 06:13:24;;;;;;;13.20;11.83;;;16.80;99.90;;;;;;5047114;28;20276;-69
2021/06/08 06:15:53;;;;;;;13.07;11.87;;;16.90;99.90;;;;;;5047676;28;20319;-68
2021/06/08 06:18:24;;;;;;;13.83;12.47;;;16.90;99.90;;;;;;5046235;28;20706;-68
2021/06/08 06:20:53;;;;;;;12.70;11.50;;;17.00;99.90;;;;;;5046890;28;20247;-68
2021/06/08 06:23:22;;;;;;;13.43;12.23;;;17.10;99.90;;;;;;5037133;28;20232;-68
2021/06/08 06:25:52;;;;;;;13.27;11.90;;;17.10;99.90;;;;;;5047447;28;20292;-68
2021/06/08 06:28:21;;;;;;;13.53;12.13;;;17.10;99.90;;;;;;5046299;28;20239;-68
2021/06/08 06:30:50;;;;;;;12.97;11.73;;;17.20;99.90;;;;;;5046542;28;20243;-68
2021/06/08 06:33:18;;;;;;;13.57;12.23;;;17.30;99.90;;;;;;5046484;28;20597;-68
2021/06/08 06:35:47;;;;;;;13.80;12.37;;;17.40;99.90;;;;;;5046290;28;20241;-68
2021/06/08 06:38:20;;;;;;;13.87;12.37;;;17.50;99.90;;;;;;5046210;28;20318;-69
2021/06/08 06:40:50;;;;;;;13.13;11.90;;;17.40;99.90;;;;;;5046721;28;20254;-68
2021/06/08 06:43:23;;;;;;;13.60;12.23;;;17.50;99.90;;;;;;5046548;28;20281;-68
2021/06/08 06:45:52;;;;;;;13.23;11.83;;;17.60;99.90;;;;;;5037702;28;20253;-68
2021/06/08 06:48:20;;;;;;;13.43;12.17;;;17.80;99.90;;;;;;5045932;28;20270;-68
2021/06/08 06:50:53;;;;;;;14.03;12.60;;;18.00;99.90;;;;;;5046782;28;20239;-68
2021/06/08 06:53:21;;;;;;;13.70;12.40;;;18.00;99.90;;;;;;5046183;28;20314;-68
2021/06/08 06:55:50;;;;;;;11.87;10.83;;;18.10;99.90;;;;;;5046969;28;20250;-68
2021/06/08 06:58:18;;;;;;;12.67;11.37;;;18.20;99.90;;;;;;5045515;28;20638;-68
2021/06/08 07:00:47;;;;;;;11.90;10.70;;;18.30;99.90;;;;;;5046544;28;20258;-68
2021/06/08 07:03:16;;;;;;;11.80;10.70;;;18.40;99.90;;;;;;5046154;28;20237;-68
2021/06/08 07:05:45;;;;;;;11.97;10.67;;;18.50;99.90;;;;;;5046923;28;20658;-68
2021/06/08 07:08:16;;;;;;;12.93;11.70;;;18.50;99.90;;;;;;5045845;28;20243;-68
2021/06/08 07:10:45;;;;;;;13.40;12.10;;;18.40;99.90;;;;;;5046071;28;20238;-68
2021/06/08 07:13:13;;;;;;;12.93;11.40;;;18.40;99.90;;;;;;5049242;28;20664;-68
2021/06/08 07:15:43;;;;;;;12.63;11.50;;;18.40;99.90;;;;;;5050608;28;20232;-68
2021/06/08 07:18:11;;;;;;;15.43;11.97;;;18.40;99.90;;;;;;5049912;28;20673;-68
2021/06/08 07:20:40;;;;;;;13.20;12.07;;;18.50;99.90;;;;;;5050182;28;20241;-68
2021/06/08 07:23:08;;;;;;;13.30;11.93;;;18.50;99.90;;;;;;5049302;28;20632;-68
2021/06/08 07:25:38;;;;;;;12.80;11.50;;;18.60;99.90;;;;;;5050378;28;20291;-68
2021/06/08 07:28:07;;;;;;;12.97;11.57;;;18.70;99.90;;;;;;5049683;28;20238;-68
2021/06/08 07:30:36;;;;;;;13.33;12.13;;;18.80;99.90;;;;;;5050392;28;20769;-69
2021/06/08 07:33:11;;;;;;;11.83;10.73;;;18.90;99.90;;;;;;5049959;28;20252;-69
2021/06/08 07:35:49;;;;;;;11.87;10.73;;;18.90;99.90;;;;;;5049616;28;20244;-68
2021/06/08 07:38:20;;;;;;;12.37;11.20;;;19.00;99.90;;;;;;5048924;28;20293;-68
2021/06/08 07:40:57;;;;;;;12.70;11.10;;;19.10;99.90;;;;;;5048562;28;20264;-68
2021/06/08 07:43:30;;;;;;;12.70;11.53;;;19.20;99.90;;;;;;5049341;28;20242;-68
2021/06/08 07:46:01;;;;;;;11.63;10.57;;;19.30;99.90;;;;;;5046533;28;20331;-68
2021/06/08 07:48:31;;;;;;;10.97;9.97;;;19.30;99.90;;;;;;5046305;28;20253;-69
2021/06/08 07:51:02;;;;;;;11.53;10.33;;;19.40;99.90;;;;;;5047112;28;20234;-68
2021/06/08 07:53:32;;;;;;;11.57;10.57;;;19.50;99.90;;;;;;5046845;28;20710;-68
2021/06/08 07:56:01;;;;;;;11.43;10.30;;;19.60;99.90;;;;;;5047442;28;20240;-68
2021/06/08 07:58:29;;;;;;;12.10;10.93;;;19.60;99.90;;;;;;5046409;28;20612;-68
2021/06/08 08:00:58;;;;;;;12.00;10.90;;;19.70;99.90;;;;;;5046529;28;20301;-68
2021/06/08 08:03:28;;;;;;;9.83;8.90;;;20.00;99.90;;;;;;5046372;28;20238;-68
2021/06/08 08:06:00;;;;;;;10.73;9.73;;;20.40;99.90;;;;;;5047077;28;20597;-68
2021/06/08 08:08:28;;;;;;;10.10;9.10;;;20.70;99.90;;;;;;5046117;28;20268;-68
2021/06/08 08:10:56;;;;;;;11.23;10.17;;;21.00;99.90;;;;;;5046256;28;20719;-68
2021/06/08 08:13:29;;;;;;;10.83;9.50;;;21.20;99.90;;;;;;5046574;28;20657;-68
2021/06/08 08:16:03;;;;;;;9.90;9.00;;;21.70;99.90;;;;;;5046799;28;20770;-69
2021/06/08 08:18:33;;;;;;;9.50;8.47;;;22.30;99.90;;;;;;5045899;28;20242;-68
2021/06/08 08:21:03;;;;;;;10.63;8.00;;;22.60;99.90;;;;;;5046419;28;20761;-68
2021/06/08 08:23:31;;;;;;;9.33;8.43;;;22.60;99.90;;;;;;5045884;28;20602;-68
2021/06/08 08:26:03;;;;;;;8.20;7.50;;;22.60;99.90;;;;;;5046436;28;20242;-68
2021/06/08 08:28:33;;;;;;;9.17;8.27;;;22.30;99.90;;;;;;5045598;28;20240;-68
2021/06/08 08:31:03;;;;;;;9.40;8.47;;;22.10;99.90;;;;;;5046093;28;20236;-68
2021/06/08 08:33:30;;;;;;;9.40;8.50;;;21.90;99.90;;;;;;5045929;28;20259;-68
2021/06/08 08:36:00;;;;;;;9.83;8.93;;;22.00;99.90;;;;;;5045981;28;20358;-68
2021/06/08 08:38:29;;;;;;;9.40;8.53;;;21.90;99.90;;;;;;5045432;28;20239;-68
2021/06/08 08:40:57;;;;;;;9.57;8.67;;;22.20;99.90;;;;;;5045878;28;20735;-68
2021/06/08 08:43:42;;;;;;;9.20;8.20;;;22.20;99.90;;;;;;5045601;28;20787;-68
2021/06/08 08:46:10;;;;;;;10.33;9.37;;;22.30;99.90;;;;;;5046046;28;20249;-68
2021/06/08 08:48:40;;;;;;;9.27;8.47;;;22.40;99.90;;;;;;5045544;28;20243;-68
2021/06/08 08:51:08;;;;;;;10.77;8.43;;;22.40;99.90;;;;;;5045446;28;20657;-68
2021/06/08 08:53:37;;;;;;;8.70;7.83;;;22.50;99.90;;;;;;5045930;28;20235;-69
2021/06/08 08:56:25;;;;;;;9.90;8.30;;;22.60;99.90;;;;;;5045920;28;20275;-68
2021/06/08 08:58:55;;;;;;;10.73;7.57;;;22.70;99.90;;;;;;5045449;28;20242;-68
2021/06/08 09:01:23;;;;;;;9.10;7.53;;;23.00;99.90;;;;;;5045334;28;20695;-66
2021/06/08 09:03:51;;;;;;;7.90;7.10;;;23.10;99.90;;;;;;5045428;28;20255;-65
2021/06/08 09:06:19;;;;;;;8.17;7.37;;;23.30;99.90;;;;;;5045798;28;20250;-65
2021/06/08 09:08:47;;;;;;;9.73;7.57;;;23.20;99.90;;;;;;5044715;28;20786;-66
2021/06/08 09:11:15;;;;;;;8.27;7.57;;;23.70;99.90;;;;;;5045401;28;20246;-66
2021/06/08 09:13:42;;;;;;;9.10;7.50;;;23.90;99.90;;;;;;5060292;28;20248;-65
2021/06/08 09:16:14;;;;;;;9.33;8.53;;;23.90;99.90;;;;;;5045315;28;20327;-66
2021/06/08 09:18:43;;;;;;;9.27;7.27;;;23.70;99.90;;;;;;5044691;28;20524;-66
2021/06/08 09:21:15;;;;;;;7.67;6.50;;;23.60;99.90;;;;;;5045257;28;20232;-66
2021/06/08 09:23:43;;;;;;;7.10;6.50;;;23.90;99.90;;;;;;5045137;28;20262;-66
2021/06/08 09:26:11;;;;;;;6.47;5.87;;;24.40;99.90;;;;;;5045609;28;20540;-66
2021/06/08 09:28:39;;;;;;;6.20;5.60;;;24.40;99.90;;;;;;5044283;28;20235;-66
2021/06/08 09:31:13;;;;;;;6.10;5.60;;;24.40;99.90;;;;;;5045305;28;20232;-66
2021/06/08 09:33:43;;;;;;;6.37;5.77;;;24.40;99.90;;;;;;5044530;28;20717;-65
2021/06/08 09:36:12;;;;;;;5.80;5.20;;;24.70;99.90;;;;;;5044748;28;20554;-65
2021/06/08 09:38:43;;;;;;;7.87;7.17;;;25.10;99.90;;;;;;5044878;28;20704;-66
2021/06/08 09:41:19;;;;;;;7.93;5.43;;;25.30;99.90;;;;;;5044363;28;20251;-65
2021/06/08 09:44:06;;;;;;;7.00;5.77;;;26.20;99.90;;;;;;5044378;28;20273;-66
2021/06/08 09:46:45;;;;;;;7.20;6.43;;;26.50;99.90;;;;;;5045157;28;20244;-66
2021/06/08 09:49:14;;;;;;;6.63;6.03;;;27.20;99.90;;;;;;5044325;28;20692;-66
2021/06/08 09:51:54;;;;;;;8.47;6.43;;;27.00;99.90;;;;;;5044786;28;20241;-66
2021/06/08 09:54:34;;;;;;;6.50;5.90;;;27.40;99.90;;;;;;5044761;28;20320;-66
2021/06/08 09:57:23;;;;;;;5.30;4.80;;;27.40;99.90;;;;;;5045047;28;20689;-66
2021/06/08 09:59:55;;;;;;;6.37;5.87;;;28.00;99.90;;;;;;5024284;28;20243;-66
2021/06/08 10:02:27;;;;;;;7.50;6.80;;;28.20;99.90;;;;;;5027224;28;20270;-66
2021/06/08 10:05:15;;;;;;;5.70;5.00;;;28.00;99.90;;;;;;5044838;28;20313;-66
2021/06/08 10:07:43;;;;;;;5.70;5.10;;;28.10;99.90;;;;;;5044210;28;20246;-66
2021/06/08 10:10:13;;;;;;;6.17;5.40;;;28.40;99.90;;;;;;5044414;28;20249;-66
2021/06/08 10:12:56;;;;;;;6.60;6.00;;;28.30;99.90;;;;;;5043704;28;20270;-66
2021/06/08 10:15:25;;;;;;;7.30;5.83;;;28.40;99.90;;;;;;5044806;28;20270;-65
2021/06/08 10:18:06;;;;;;;6.40;5.70;;;28.60;99.90;;;;;;5044081;28;20728;-66
2021/06/08 10:20:36;;;;;;;7.03;5.40;;;28.60;99.90;;;;;;5043975;28;20235;-66
2021/06/08 10:23:19;;;;;;;8.07;6.20;;;28.50;99.90;;;;;;5043873;28;20235;-66
2021/06/08 10:25:47;;;;;;;6.67;4.93;;;28.20;99.90;;;;;;5044422;28;20508;-66
2021/06/08 10:28:16;;;;;;;6.70;4.73;;;28.10;99.90;;;;;;5042733;28;20325;-65
2021/06/08 10:30:45;;;;;;;4.50;3.50;;;28.40;99.90;;;;;;5044179;28;20250;-65
2021/06/08 10:33:34;;;;;;;5.50;4.47;;;29.00;99.90;;;;;;5039950;28;20315;-65
2021/06/08 10:36:16;;;;;;;4.80;4.30;;;29.10;99.90;;;;;;5041532;28;20244;-65
2021/06/08 10:38:47;;;;;;;4.73;4.30;;;29.10;99.90;;;;;;5058134;28;21923;-66
2021/06/08 10:41:14;;;;;;;7.07;5.90;;;29.20;99.90;;;;;;5041337;28;20365;-65
2021/06/08 10:43:42;;;;;;;7.53;6.40;;;28.90;99.90;;;;;;5042801;28;20255;-65
2021/06/08 10:46:22;;;;;;;5.37;4.37;;;28.80;99.90;;;;;;5045450;28;20239;-66
2021/06/08 10:48:52;;;;;;;6.77;4.87;;;28.70;99.90;;;;;;5047749;28;20243;-65
2021/06/08 10:51:21;;;;;;;5.73;5.00;;;28.60;99.90;;;;;;5048167;28;20239;-66
2021/06/08 10:53:51;;;;;;;5.37;4.10;;;28.50;99.90;;;;;;5047254;28;20555;-66
2021/06/08 10:56:21;;;;;;;6.23;4.83;;;29.20;99.90;;;;;;5047904;28;20680;-65
2021/06/08 10:58:50;;;;;;;9.03;5.00;;;29.20;99.90;;;;;;5046917;28;20243;-65
2021/06/08 11:01:47;;;;;;;5.00;4.30;;;29.30;99.90;;;;;;5046110;28;20239;-65
2021/06/08 11:04:24;;;;;;;7.90;5.13;;;29.40;99.90;;;;;;5046593;28;20544;-66
2021/06/08 11:06:56;;;;;;;6.87;5.17;;;29.70;99.90;;;;;;5045342;28;20242;-66
2021/06/08 11:09:36;;;;;;;5.43;4.50;;;30.30;99.90;;;;;;5047170;28;20235;-65
2021/06/08 11:12:24;;;;;;;5.90;4.77;;;30.30;99.90;;;;;;5042048;28;20322;-66
2021/06/08 11:15:00;;;;;;;5.43;4.37;;;30.20;99.90;;;;;;5036978;28;20240;-66
2021/06/08 11:17:46;;;;;;;4.90;3.97;;;30.20;99.90;;;;;;5038441;28;20463;-66
2021/06/08 11:20:23;;;;;;;5.13;4.63;;;30.20;99.90;;;;;;5037050;28;20756;-65
2021/06/08 11:22:59;;;;;;;5.57;4.97;;;30.60;99.90;;;;;;5037235;28;20599;-66
2021/06/08 11:25:52;;;;;;;4.97;4.43;;;30.30;99.50;;;;;;5037201;28;20301;-66
2021/06/08 11:28:21;;;;;;;4.67;4.27;;;30.30;99.90;;;;;;5037555;28;20680;-66
2021/06/08 11:30:57;;;;;;;4.17;3.77;;;30.20;99.90;;;;;;5036493;28;20345;-66
2021/06/08 11:33:32;;;;;;;5.50;4.80;;;30.30;99.90;;;;;;5049328;28;20235;-66
2021/06/08 11:36:03;;;;;;;5.03;4.53;;;29.80;99.90;;;;;;5051699;28;20717;-66
2021/06/08 11:38:34;;;;;;;4.97;4.47;;;29.20;99.90;;;;;;5048174;28;20668;-65
2021/06/08 11:41:10;;;;;;;5.37;4.87;;;29.30;99.90;;;;;;5064604;28;20267;-65
2021/06/08 11:43:57;;;;;;;5.43;4.80;;;29.70;99.90;;;;;;5048635;28;20243;-66
2021/06/08 11:46:30;;;;;;;4.73;4.03;;;29.70;99.90;;;;;;5052679;28;20254;-65
2021/06/08 11:49:20;;;;;;;4.83;4.40;;;30.30;99.90;;;;;;5051487;28;20245;-65
2021/06/08 11:52:05;;;;;;;5.17;4.67;;;30.00;99.90;;;;;;5045448;28;20272;-66
2021/06/08 11:54:49;;;;;;;5.90;5.30;;;30.50;99.90;;;;;;5051093;28;20239;-66
2021/06/08 11:57:34;;;;;;;5.73;4.57;;;29.60;99.80;;;;;;5052199;28;20613;-66
2021/06/08 12:00:03;;;;;;;7.23;6.63;;;29.00;99.90;;;;;;5046616;28;20320;-66
2021/06/08 12:02:37;;;;;;;6.13;5.53;;;28.90;99.90;;;;;;5049751;28;20269;-66
2021/06/08 12:05:21;;;;;;;7.20;6.50;;;28.80;99.90;;;;;;5046620;28;20281;-66
2021/06/08 12:07:52;;;;;;;5.73;5.20;;;28.70;99.90;;;;;;5043727;28;20274;-66
2021/06/08 12:10:30;;;;;;;5.77;5.10;;;28.90;99.90;;;;;;5043641;28;20300;-66
2021/06/08 12:12:58;;;;;;;5.10;4.60;;;29.10;99.90;;;;;;5044819;28;20243;-66
2021/06/08 12:15:29;;;;;;;4.70;4.30;;;29.30;99.90;;;;;;5045232;28;20247;-66
2021/06/08 12:18:04;;;;;;;5.87;5.37;;;29.20;99.90;;;;;;5052152;28;20243;-65
2021/06/08 12:20:32;;;;;;;4.70;4.23;;;28.20;99.90;;;;;;5038545;28;20289;-66
2021/06/08 12:23:01;;;;;;;5.60;4.60;;;28.10;99.90;;;;;;5054175;28;20252;-68
2021/06/08 12:25:30;;;;;;;6.07;5.53;;;27.30;99.90;;;;;;5037382;28;20694;-67
2021/06/08 12:27:58;;;;;;;4.77;4.37;;;27.80;99.90;;;;;;5053950;28;20243;-67
2021/06/08 12:30:28;;;;;;;6.65;5.65;;;27.60;99.90;;;;;;5037474;28;20521;-65
2021/06/08 12:32:58;;;;;;;4.60;4.20;;;27.30;99.90;;;;;;5052892;28;20583;-66
2021/06/08 12:35:30;;;;;;;5.20;4.70;;;27.00;99.90;;;;;;5037710;28;20239;-65
2021/06/08 12:38:10;;;;;;;4.63;4.20;;;27.10;99.90;;;;;;5053962;28;20384;-66
2021/06/08 12:40:38;;;;;;;4.10;3.70;;;27.30;99.90;;;;;;5039620;28;20243;-65
2021/06/08 12:43:06;;;;;;;5.03;4.53;;;27.50;99.90;;;;;;5045991;28;20250;-66
2021/06/08 12:45:34;;;;;;;7.97;4.70;;;27.10;99.90;;;;;;5046071;28;20594;-66
2021/06/08 12:48:16;;;;;;;4.50;4.00;;;27.20;99.90;;;;;;5054411;28;20323;-66
2021/06/08 12:50:44;;;;;;;6.20;3.70;;;26.70;99.90;;;;;;5051950;28;20248;-66
2021/06/08 12:53:18;;;;;;;5.87;4.97;;;26.60;99.90;;;;;;5054146;28;20235;-65